sensor_id;sensor_type;location;lat;lon;timestamp;P1;durP1;ratioP1;P2;durP2;ratioP2
50681;SDS011;36779;52.168;20.878;2023-02-13T00:01:45;32.90;;;10.70;;
50681;SDS011;36779;52.168;20.878;2023-02-13T00:04:13;31.60;;;10.30;;
50681;SDS011;36779;52.168;20.878;2023-02-13T00:06:44;32.40;;;10.70;;
50681;SDS011;36779;52.168;20.878;2023-02-13T00:09:16;28.40;;;10.90;;
50681;SDS011;36779;52.168;20.878;2023-02-13T00:11:44;32.90;;;12.40;;
50681;SDS011;36779;52.168;20.878;2023-02-13T00:14:13;36.00;;;12.20;;
50681;SDS011;36779;52.168;20.878;2023-02-13T00:16:42;28.60;;;11.20;;
50681;SDS011;36779;52.168;20.878;2023-02-13T00:19:12;40.80;;;13.60;;
50681;SDS011;36779;52.168;20.878;2023-02-13T00:21:40;32.60;;;12.10;;
50681;SDS011;36779;52.168;20.878;2023-02-13T00:24:11;27.70;;;11.80;;
50681;SDS011;36779;52.168;20.878;2023-02-13T00:26:39;32.10;;;12.90;;
50681;SDS011;36779;52.168;20.878;2023-02-13T00:29:08;33.80;;;12.50;;
50681;SDS011;36779;52.168;20.878;2023-02-13T00:31:37;30.70;;;12.00;;
50681;SDS011;36779;52.168;20.878;2023-02-13T00:34:07;30.50;;;10.60;;
50681;SDS011;36779;52.168;20.878;2023-02-13T00:36:36;30.10;;;11.00;;
50681;SDS011;36779;52.168;20.878;2023-02-13T00:39:05;32.20;;;12.20;;
50681;SDS011;36779;52.168;20.878;2023-02-13T00:41:34;27.40;;;11.10;;
50681;SDS011;36779;52.168;20.878;2023-02-13T00:44:03;29.40;;;10.80;;
50681;SDS011;36779;52.168;20.878;2023-02-13T00:46:32;34.90;;;11.40;;
50681;SDS011;36779;52.168;20.878;2023-02-13T00:49:01;38.00;;;11.80;;
50681;SDS011;36779;52.168;20.878;2023-02-13T00:51:34;31.50;;;11.30;;
50681;SDS011;36779;52.168;20.878;2023-02-13T00:54:03;30.60;;;11.40;;
50681;SDS011;36779;52.168;20.878;2023-02-13T00:56:33;32.80;;;12.30;;
50681;SDS011;36779;52.168;20.878;2023-02-13T00:59:01;34.50;;;12.60;;
50681;SDS011;36779;52.168;20.878;2023-02-13T01:01:30;28.30;;;12.10;;
50681;SDS011;36779;52.168;20.878;2023-02-13T01:04:00;29.10;;;11.20;;
50681;SDS011;36779;52.168;20.878;2023-02-13T01:06:29;29.30;;;10.50;;
50681;SDS011;36779;52.168;20.878;2023-02-13T01:08:59;31.90;;;11.40;;
50681;SDS011;36779;52.168;20.878;2023-02-13T01:11:32;21.60;;;8.20;;
50681;SDS011;36779;52.168;20.878;2023-02-13T01:14:01;32.80;;;11.40;;
50681;SDS011;36779;52.168;20.878;2023-02-13T01:16:30;34.90;;;11.20;;
50681;SDS011;36779;52.168;20.878;2023-02-13T01:18:59;31.60;;;10.60;;
50681;SDS011;36779;52.168;20.878;2023-02-13T01:21:31;35.10;;;12.00;;
50681;SDS011;36779;52.168;20.878;2023-02-13T01:24:02;28.70;;;11.50;;
50681;SDS011;36779;52.168;20.878;2023-02-13T01:26:34;32.30;;;10.90;;
50681;SDS011;36779;52.168;20.878;2023-02-13T01:29:03;33.90;;;11.30;;
50681;SDS011;36779;52.168;20.878;2023-02-13T01:31:32;31.90;;;11.80;;
50681;SDS011;36779;52.168;20.878;2023-02-13T01:34:01;33.70;;;11.10;;
50681;SDS011;36779;52.168;20.878;2023-02-13T01:36:30;32.40;;;11.20;;
50681;SDS011;36779;52.168;20.878;2023-02-13T01:38:59;25.00;;;10.30;;
50681;SDS011;36779;52.168;20.878;2023-02-13T01:41:28;30.30;;;11.10;;
50681;SDS011;36779;52.168;20.878;2023-02-13T01:43:57;28.00;;;10.50;;
50681;SDS011;36779;52.168;20.878;2023-02-13T01:46:28;28.90;;;10.30;;
50681;SDS011;36779;52.168;20.878;2023-02-13T01:49:05;25.90;;;11.00;;
50681;SDS011;36779;52.168;20.878;2023-02-13T01:51:39;29.20;;;11.60;;
50681;SDS011;36779;52.168;20.878;2023-02-13T01:54:16;34.00;;;10.60;;
50681;SDS011;36779;52.168;20.878;2023-02-13T01:56:49;30.60;;;10.30;;
50681;SDS011;36779;52.168;20.878;2023-02-13T01:59:22;31.20;;;10.10;;
50681;SDS011;36779;52.168;20.878;2023-02-13T02:01:57;32.20;;;11.30;;
50681;SDS011;36779;52.168;20.878;2023-02-13T02:04:33;28.20;;;9.90;;
50681;SDS011;36779;52.168;20.878;2023-02-13T02:07:13;30.70;;;9.80;;
50681;SDS011;36779;52.168;20.878;2023-02-13T02:09:47;31.60;;;10.70;;
50681;SDS011;36779;52.168;20.878;2023-02-13T02:12:19;30.90;;;10.20;;
50681;SDS011;36779;52.168;20.878;2023-02-13T02:15:00;30.30;;;9.90;;
50681;SDS011;36779;52.168;20.878;2023-02-13T02:17:32;29.20;;;10.00;;
50681;SDS011;36779;52.168;20.878;2023-02-13T02:20:05;25.00;;;8.70;;
50681;SDS011;36779;52.168;20.878;2023-02-13T02:22:56;25.60;;;9.60;;
50681;SDS011;36779;52.168;20.878;2023-02-13T02:29:20;28.90;;;12.10;;
50681;SDS011;36779;52.168;20.878;2023-02-13T02:32:16;31.50;;;11.20;;
50681;SDS011;36779;52.168;20.878;2023-02-13T02:34:57;33.80;;;11.30;;
50681;SDS011;36779;52.168;20.878;2023-02-13T02:37:48;30.10;;;11.60;;
50681;SDS011;36779;52.168;20.878;2023-02-13T02:40:27;28.10;;;11.30;;
50681;SDS011;36779;52.168;20.878;2023-02-13T02:43:10;30.00;;;11.90;;
50681;SDS011;36779;52.168;20.878;2023-02-13T02:45:53;33.70;;;12.50;;
50681;SDS011;36779;52.168;20.878;2023-02-13T02:48:29;36.50;;;12.90;;
50681;SDS011;36779;52.168;20.878;2023-02-13T02:51:29;34.60;;;11.90;;
50681;SDS011;36779;52.168;20.878;2023-02-13T02:54:08;30.80;;;13.00;;
50681;SDS011;36779;52.168;20.878;2023-02-13T02:57:03;30.40;;;12.00;;
50681;SDS011;36779;52.168;20.878;2023-02-13T02:59:37;30.70;;;13.50;;
50681;SDS011;36779;52.168;20.878;2023-02-13T03:02:28;34.90;;;13.40;;
50681;SDS011;36779;52.168;20.878;2023-02-13T03:05:20;34.60;;;12.20;;
50681;SDS011;36779;52.168;20.878;2023-02-13T03:08:12;28.20;;;12.00;;
50681;SDS011;36779;52.168;20.878;2023-02-13T03:11:02;30.60;;;12.30;;
50681;SDS011;36779;52.168;20.878;2023-02-13T03:14:04;31.10;;;10.80;;
50681;SDS011;36779;52.168;20.878;2023-02-13T03:16:38;26.10;;;9.10;;
50681;SDS011;36779;52.168;20.878;2023-02-13T03:19:29;25.00;;;9.30;;
50681;SDS011;36779;52.168;20.878;2023-02-13T03:22:28;19.80;;;9.10;;
50681;SDS011;36779;52.168;20.878;2023-02-13T03:25:06;21.00;;;8.70;;
50681;SDS011;36779;52.168;20.878;2023-02-13T03:27:46;25.30;;;9.10;;
50681;SDS011;36779;52.168;20.878;2023-02-13T03:30:46;18.60;;;7.50;;
50681;SDS011;36779;52.168;20.878;2023-02-13T03:33:32;33.70;;;9.50;;
50681;SDS011;36779;52.168;20.878;2023-02-13T03:36:24;22.60;;;10.20;;
50681;SDS011;36779;52.168;20.878;2023-02-13T03:39:19;21.30;;;9.60;;
50681;SDS011;36779;52.168;20.878;2023-02-13T03:41:56;32.20;;;10.00;;
50681;SDS011;36779;52.168;20.878;2023-02-13T03:44:30;25.40;;;9.60;;
50681;SDS011;36779;52.168;20.878;2023-02-13T03:47:03;25.30;;;8.50;;
50681;SDS011;36779;52.168;20.878;2023-02-13T03:49:36;28.60;;;9.10;;
50681;SDS011;36779;52.168;20.878;2023-02-13T03:52:30;18.20;;;6.70;;
50681;SDS011;36779;52.168;20.878;2023-02-13T03:55:06;28.20;;;9.20;;
50681;SDS011;36779;52.168;20.878;2023-02-13T03:57:58;22.90;;;8.80;;
50681;SDS011;36779;52.168;20.878;2023-02-13T04:00:49;19.90;;;8.20;;
50681;SDS011;36779;52.168;20.878;2023-02-13T04:03:25;28.60;;;10.00;;
50681;SDS011;36779;52.168;20.878;2023-02-13T04:06:01;25.30;;;9.60;;
50681;SDS011;36779;52.168;20.878;2023-02-13T04:08:35;25.90;;;10.60;;
50681;SDS011;36779;52.168;20.878;2023-02-13T04:11:06;25.60;;;9.10;;
50681;SDS011;36779;52.168;20.878;2023-02-13T04:13:42;25.90;;;10.50;;
50681;SDS011;36779;52.168;20.878;2023-02-13T04:16:20;23.80;;;9.30;;
50681;SDS011;36779;52.168;20.878;2023-02-13T04:18:54;24.50;;;10.10;;
50681;SDS011;36779;52.168;20.878;2023-02-13T04:21:24;24.30;;;9.60;;
50681;SDS011;36779;52.168;20.878;2023-02-13T04:23:55;26.00;;;10.40;;
50681;SDS011;36779;52.168;20.878;2023-02-13T04:26:24;24.40;;;10.80;;
50681;SDS011;36779;52.168;20.878;2023-02-13T04:29:00;24.60;;;9.20;;
50681;SDS011;36779;52.168;20.878;2023-02-13T04:31:29;22.70;;;9.30;;
50681;SDS011;36779;52.168;20.878;2023-02-13T04:33:58;30.10;;;10.40;;
50681;SDS011;36779;52.168;20.878;2023-02-13T04:36:27;25.90;;;9.80;;
50681;SDS011;36779;52.168;20.878;2023-02-13T04:38:59;25.80;;;9.70;;
50681;SDS011;36779;52.168;20.878;2023-02-13T04:41:27;28.80;;;10.20;;
50681;SDS011;36779;52.168;20.878;2023-02-13T04:43:56;23.20;;;8.80;;
50681;SDS011;36779;52.168;20.878;2023-02-13T04:46:28;21.40;;;8.40;;
50681;SDS011;36779;52.168;20.878;2023-02-13T04:49:00;25.30;;;9.00;;
50681;SDS011;36779;52.168;20.878;2023-02-13T04:51:29;27.10;;;10.80;;
50681;SDS011;36779;52.168;20.878;2023-02-13T04:53:58;27.10;;;10.10;;
50681;SDS011;36779;52.168;20.878;2023-02-13T04:56:26;21.80;;;8.90;;
50681;SDS011;36779;52.168;20.878;2023-02-13T04:58:55;25.30;;;9.00;;
50681;SDS011;36779;52.168;20.878;2023-02-13T05:01:25;22.70;;;8.90;;
50681;SDS011;36779;52.168;20.878;2023-02-13T05:03:54;26.00;;;9.40;;
50681;SDS011;36779;52.168;20.878;2023-02-13T05:06:23;22.80;;;9.10;;
50681;SDS011;36779;52.168;20.878;2023-02-13T05:08:55;26.80;;;10.10;;
50681;SDS011;36779;52.168;20.878;2023-02-13T05:11:24;29.20;;;10.20;;
50681;SDS011;36779;52.168;20.878;2023-02-13T05:13:53;27.70;;;10.80;;
50681;SDS011;36779;52.168;20.878;2023-02-13T05:16:22;25.30;;;10.00;;
50681;SDS011;36779;52.168;20.878;2023-02-13T05:18:51;24.20;;;9.50;;
50681;SDS011;36779;52.168;20.878;2023-02-13T05:21:21;26.30;;;10.10;;
50681;SDS011;36779;52.168;20.878;2023-02-13T05:24:09;25.10;;;9.20;;
50681;SDS011;36779;52.168;20.878;2023-02-13T05:26:40;23.50;;;10.10;;
50681;SDS011;36779;52.168;20.878;2023-02-13T05:29:12;22.60;;;9.10;;
50681;SDS011;36779;52.168;20.878;2023-02-13T05:31:45;25.70;;;9.60;;
50681;SDS011;36779;52.168;20.878;2023-02-13T05:34:15;26.20;;;9.50;;
50681;SDS011;36779;52.168;20.878;2023-02-13T05:36:45;26.10;;;9.70;;
50681;SDS011;36779;52.168;20.878;2023-02-13T05:39:14;28.20;;;10.50;;
50681;SDS011;36779;52.168;20.878;2023-02-13T05:41:47;25.20;;;10.10;;
50681;SDS011;36779;52.168;20.878;2023-02-13T05:44:16;30.20;;;10.60;;
50681;SDS011;36779;52.168;20.878;2023-02-13T05:46:46;23.30;;;9.10;;
50681;SDS011;36779;52.168;20.878;2023-02-13T05:49:16;19.80;;;9.00;;
50681;SDS011;36779;52.168;20.878;2023-02-13T05:51:45;23.90;;;9.10;;
50681;SDS011;36779;52.168;20.878;2023-02-13T05:54:14;26.50;;;9.20;;
50681;SDS011;36779;52.168;20.878;2023-02-13T05:56:45;25.60;;;9.30;;
50681;SDS011;36779;52.168;20.878;2023-02-13T05:59:17;20.60;;;9.30;;
50681;SDS011;36779;52.168;20.878;2023-02-13T06:01:46;24.30;;;9.80;;
50681;SDS011;36779;52.168;20.878;2023-02-13T06:04:15;16.10;;;7.40;;
50681;SDS011;36779;52.168;20.878;2023-02-13T06:06:45;26.90;;;10.20;;
50681;SDS011;36779;52.168;20.878;2023-02-13T06:09:16;21.00;;;7.90;;
50681;SDS011;36779;52.168;20.878;2023-02-13T06:11:44;25.90;;;9.60;;
50681;SDS011;36779;52.168;20.878;2023-02-13T06:14:13;25.20;;;10.20;;
50681;SDS011;36779;52.168;20.878;2023-02-13T06:16:43;27.00;;;10.30;;
50681;SDS011;36779;52.168;20.878;2023-02-13T06:19:14;29.60;;;10.70;;
50681;SDS011;36779;52.168;20.878;2023-02-13T06:21:44;29.00;;;10.40;;
50681;SDS011;36779;52.168;20.878;2023-02-13T06:24:13;22.20;;;9.10;;
50681;SDS011;36779;52.168;20.878;2023-02-13T06:26:42;22.80;;;9.40;;
50681;SDS011;36779;52.168;20.878;2023-02-13T06:29:11;27.80;;;11.00;;
50681;SDS011;36779;52.168;20.878;2023-02-13T06:31:40;28.40;;;11.10;;
50681;SDS011;36779;52.168;20.878;2023-02-13T06:34:10;24.10;;;9.40;;
50681;SDS011;36779;52.168;20.878;2023-02-13T06:36:39;26.00;;;11.00;;
50681;SDS011;36779;52.168;20.878;2023-02-13T06:39:11;25.70;;;10.10;;
50681;SDS011;36779;52.168;20.878;2023-02-13T06:41:40;27.40;;;11.80;;
50681;SDS011;36779;52.168;20.878;2023-02-13T06:44:11;23.20;;;10.10;;
50681;SDS011;36779;52.168;20.878;2023-02-13T06:46:40;26.80;;;10.40;;
50681;SDS011;36779;52.168;20.878;2023-02-13T06:49:10;30.30;;;10.10;;
50681;SDS011;36779;52.168;20.878;2023-02-13T06:51:38;24.70;;;9.50;;
50681;SDS011;36779;52.168;20.878;2023-02-13T06:54:07;20.70;;;9.00;;
50681;SDS011;36779;52.168;20.878;2023-02-13T06:56:35;24.40;;;8.90;;
50681;SDS011;36779;52.168;20.878;2023-02-13T06:59:04;23.10;;;8.00;;
50681;SDS011;36779;52.168;20.878;2023-02-13T07:01:33;17.80;;;7.40;;
50681;SDS011;36779;52.168;20.878;2023-02-13T07:04:03;23.80;;;8.50;;
50681;SDS011;36779;52.168;20.878;2023-02-13T07:06:31;18.10;;;7.80;;
50681;SDS011;36779;52.168;20.878;2023-02-13T07:09:01;20.80;;;7.60;;
50681;SDS011;36779;52.168;20.878;2023-02-13T07:11:30;22.80;;;8.00;;
50681;SDS011;36779;52.168;20.878;2023-02-13T07:13:59;26.50;;;9.40;;
50681;SDS011;36779;52.168;20.878;2023-02-13T07:16:28;21.50;;;8.10;;
50681;SDS011;36779;52.168;20.878;2023-02-13T07:18:56;21.90;;;8.60;;
50681;SDS011;36779;52.168;20.878;2023-02-13T07:21:25;23.10;;;8.30;;
50681;SDS011;36779;52.168;20.878;2023-02-13T07:23:54;20.00;;;7.60;;
50681;SDS011;36779;52.168;20.878;2023-02-13T07:26:23;20.30;;;7.80;;
50681;SDS011;36779;52.168;20.878;2023-02-13T07:28:52;19.90;;;8.20;;
50681;SDS011;36779;52.168;20.878;2023-02-13T07:31:36;24.50;;;8.20;;
50681;SDS011;36779;52.168;20.878;2023-02-13T07:34:05;21.10;;;8.80;;
50681;SDS011;36779;52.168;20.878;2023-02-13T07:36:34;20.80;;;9.50;;
50681;SDS011;36779;52.168;20.878;2023-02-13T07:39:03;19.40;;;8.90;;
50681;SDS011;36779;52.168;20.878;2023-02-13T07:41:32;19.70;;;7.80;;
50681;SDS011;36779;52.168;20.878;2023-02-13T07:44:01;20.60;;;8.50;;
50681;SDS011;36779;52.168;20.878;2023-02-13T07:46:29;22.90;;;7.60;;
50681;SDS011;36779;52.168;20.878;2023-02-13T07:49:01;17.20;;;8.00;;
50681;SDS011;36779;52.168;20.878;2023-02-13T07:51:30;20.60;;;9.00;;
50681;SDS011;36779;52.168;20.878;2023-02-13T07:53:59;13.70;;;5.80;;
50681;SDS011;36779;52.168;20.878;2023-02-13T07:56:28;15.00;;;6.20;;
50681;SDS011;36779;52.168;20.878;2023-02-13T07:58:57;13.70;;;6.30;;
50681;SDS011;36779;52.168;20.878;2023-02-13T08:01:26;16.90;;;6.80;;
50681;SDS011;36779;52.168;20.878;2023-02-13T08:03:54;14.50;;;6.60;;
50681;SDS011;36779;52.168;20.878;2023-02-13T08:06:23;17.00;;;6.90;;
50681;SDS011;36779;52.168;20.878;2023-02-13T08:08:52;14.40;;;5.90;;
50681;SDS011;36779;52.168;20.878;2023-02-13T08:11:35;15.90;;;6.50;;
50681;SDS011;36779;52.168;20.878;2023-02-13T08:14:20;17.20;;;6.90;;
50681;SDS011;36779;52.168;20.878;2023-02-13T08:16:50;16.70;;;6.60;;
50681;SDS011;36779;52.168;20.878;2023-02-13T08:19:20;13.00;;;5.50;;
50681;SDS011;36779;52.168;20.878;2023-02-13T08:21:48;12.50;;;4.70;;
50681;SDS011;36779;52.168;20.878;2023-02-13T08:24:17;11.10;;;3.90;;
50681;SDS011;36779;52.168;20.878;2023-02-13T08:26:46;14.60;;;5.00;;
50681;SDS011;36779;52.168;20.878;2023-02-13T08:29:15;15.20;;;5.90;;
50681;SDS011;36779;52.168;20.878;2023-02-13T08:31:46;15.50;;;5.40;;
50681;SDS011;36779;52.168;20.878;2023-02-13T08:34:15;13.60;;;5.90;;
50681;SDS011;36779;52.168;20.878;2023-02-13T08:36:44;12.50;;;5.30;;
50681;SDS011;36779;52.168;20.878;2023-02-13T08:39:13;15.90;;;6.20;;
50681;SDS011;36779;52.168;20.878;2023-02-13T08:41:42;15.90;;;7.20;;
50681;SDS011;36779;52.168;20.878;2023-02-13T08:44:12;19.80;;;8.80;;
50681;SDS011;36779;52.168;20.878;2023-02-13T08:46:41;21.30;;;8.60;;
50681;SDS011;36779;52.168;20.878;2023-02-13T08:49:11;11.20;;;5.80;;
50681;SDS011;36779;52.168;20.878;2023-02-13T08:51:40;14.90;;;6.20;;
50681;SDS011;36779;52.168;20.878;2023-02-13T08:54:10;12.90;;;6.00;;
50681;SDS011;36779;52.168;20.878;2023-02-13T08:56:39;14.80;;;5.70;;
50681;SDS011;36779;52.168;20.878;2023-02-13T08:59:10;13.80;;;4.90;;
50681;SDS011;36779;52.168;20.878;2023-02-13T09:01:41;9.70;;;4.80;;
50681;SDS011;36779;52.168;20.878;2023-02-13T09:04:11;9.50;;;3.70;;
50681;SDS011;36779;52.168;20.878;2023-02-13T09:06:45;8.50;;;4.10;;
50681;SDS011;36779;52.168;20.878;2023-02-13T09:09:14;8.80;;;3.70;;
50681;SDS011;36779;52.168;20.878;2023-02-13T09:11:45;9.70;;;4.60;;
50681;SDS011;36779;52.168;20.878;2023-02-13T09:14:17;9.00;;;3.70;;
50681;SDS011;36779;52.168;20.878;2023-02-13T09:16:47;7.40;;;4.00;;
50681;SDS011;36779;52.168;20.878;2023-02-13T09:19:17;9.70;;;3.50;;
50681;SDS011;36779;52.168;20.878;2023-02-13T09:21:47;8.10;;;4.30;;
50681;SDS011;36779;52.168;20.878;2023-02-13T09:24:18;8.20;;;3.70;;
50681;SDS011;36779;52.168;20.878;2023-02-13T09:26:47;11.30;;;4.40;;
50681;SDS011;36779;52.168;20.878;2023-02-13T09:29:16;9.90;;;5.00;;
50681;SDS011;36779;52.168;20.878;2023-02-13T09:31:45;6.70;;;3.60;;
50681;SDS011;36779;52.168;20.878;2023-02-13T09:34:14;15.50;;;5.00;;
50681;SDS011;36779;52.168;20.878;2023-02-13T09:36:51;11.60;;;5.00;;
50681;SDS011;36779;52.168;20.878;2023-02-13T09:39:20;11.10;;;5.00;;
50681;SDS011;36779;52.168;20.878;2023-02-13T09:41:49;11.60;;;4.90;;
50681;SDS011;36779;52.168;20.878;2023-02-13T09:44:21;10.80;;;5.20;;
50681;SDS011;36779;52.168;20.878;2023-02-13T09:47:04;15.40;;;6.20;;
50681;SDS011;36779;52.168;20.878;2023-02-13T09:49:43;11.90;;;5.20;;
50681;SDS011;36779;52.168;20.878;2023-02-13T09:52:15;11.00;;;5.80;;
50681;SDS011;36779;52.168;20.878;2023-02-13T09:54:46;13.70;;;7.00;;
50681;SDS011;36779;52.168;20.878;2023-02-13T09:57:19;13.80;;;5.80;;
50681;SDS011;36779;52.168;20.878;2023-02-13T09:59:57;13.30;;;6.70;;
50681;SDS011;36779;52.168;20.878;2023-02-13T10:02:40;10.20;;;5.10;;
50681;SDS011;36779;52.168;20.878;2023-02-13T10:05:20;14.10;;;5.50;;
50681;SDS011;36779;52.168;20.878;2023-02-13T10:08:02;8.30;;;4.20;;
50681;SDS011;36779;52.168;20.878;2023-02-13T10:10:41;13.00;;;5.40;;
50681;SDS011;36779;52.168;20.878;2023-02-13T10:13:22;11.30;;;6.40;;
50681;SDS011;36779;52.168;20.878;2023-02-13T10:16:05;10.70;;;5.70;;
50681;SDS011;36779;52.168;20.878;2023-02-13T10:18:47;9.70;;;5.30;;
50681;SDS011;36779;52.168;20.878;2023-02-13T10:21:19;15.40;;;6.30;;
50681;SDS011;36779;52.168;20.878;2023-02-13T10:23:54;13.10;;;5.90;;
50681;SDS011;36779;52.168;20.878;2023-02-13T10:26:27;12.30;;;6.60;;
50681;SDS011;36779;52.168;20.878;2023-02-13T10:29:12;11.80;;;6.70;;
50681;SDS011;36779;52.168;20.878;2023-02-13T10:32:06;14.40;;;7.00;;
50681;SDS011;36779;52.168;20.878;2023-02-13T10:34:41;15.90;;;7.50;;
50681;SDS011;36779;52.168;20.878;2023-02-13T10:37:17;104.10;;;36.50;;
50681;SDS011;36779;52.168;20.878;2023-02-13T10:39:49;18.30;;;8.50;;
50681;SDS011;36779;52.168;20.878;2023-02-13T10:42:21;16.30;;;7.40;;
50681;SDS011;36779;52.168;20.878;2023-02-13T10:45:04;9.50;;;4.90;;
50681;SDS011;36779;52.168;20.878;2023-02-13T10:47:52;19.00;;;9.20;;
50681;SDS011;36779;52.168;20.878;2023-02-13T10:50:35;12.80;;;6.90;;
50681;SDS011;36779;52.168;20.878;2023-02-13T10:53:13;13.10;;;6.60;;
50681;SDS011;36779;52.168;20.878;2023-02-13T10:55:52;12.20;;;6.50;;
50681;SDS011;36779;52.168;20.878;2023-02-13T10:58:36;14.70;;;7.40;;
50681;SDS011;36779;52.168;20.878;2023-02-13T11:01:15;16.90;;;8.70;;
50681;SDS011;36779;52.168;20.878;2023-02-13T11:03:48;15.90;;;7.90;;
50681;SDS011;36779;52.168;20.878;2023-02-13T11:06:28;19.70;;;10.40;;
50681;SDS011;36779;52.168;20.878;2023-02-13T11:08:58;15.90;;;8.80;;
50681;SDS011;36779;52.168;20.878;2023-02-13T11:11:28;14.70;;;6.60;;
50681;SDS011;36779;52.168;20.878;2023-02-13T11:14:10;16.30;;;8.90;;
50681;SDS011;36779;52.168;20.878;2023-02-13T11:16:46;55.80;;;19.30;;
50681;SDS011;36779;52.168;20.878;2023-02-13T11:19:21;36.90;;;13.00;;
50681;SDS011;36779;52.168;20.878;2023-02-13T11:21:54;26.20;;;10.80;;
50681;SDS011;36779;52.168;20.878;2023-02-13T11:24:28;16.90;;;8.70;;
50681;SDS011;36779;52.168;20.878;2023-02-13T11:27:01;29.00;;;11.50;;
50681;SDS011;36779;52.168;20.878;2023-02-13T11:29:35;21.70;;;8.80;;
50681;SDS011;36779;52.168;20.878;2023-02-13T11:32:19;24.00;;;9.90;;
50681;SDS011;36779;52.168;20.878;2023-02-13T11:34:50;13.30;;;7.30;;
50681;SDS011;36779;52.168;20.878;2023-02-13T11:37:23;15.40;;;7.30;;
50681;SDS011;36779;52.168;20.878;2023-02-13T11:39:55;14.30;;;7.70;;
50681;SDS011;36779;52.168;20.878;2023-02-13T11:42:30;14.70;;;7.70;;
50681;SDS011;36779;52.168;20.878;2023-02-13T11:45:02;17.40;;;7.20;;
50681;SDS011;36779;52.168;20.878;2023-02-13T11:47:38;17.40;;;8.80;;
50681;SDS011;36779;52.168;20.878;2023-02-13T11:50:20;18.30;;;8.60;;
50681;SDS011;36779;52.168;20.878;2023-02-13T11:52:54;21.00;;;9.30;;
50681;SDS011;36779;52.168;20.878;2023-02-13T11:55:27;18.60;;;8.10;;
50681;SDS011;36779;52.168;20.878;2023-02-13T11:57:59;16.70;;;7.60;;
50681;SDS011;36779;52.168;20.878;2023-02-13T12:00:34;17.60;;;7.90;;
50681;SDS011;36779;52.168;20.878;2023-02-13T12:03:24;14.90;;;7.60;;
50681;SDS011;36779;52.168;20.878;2023-02-13T12:08:47;14.60;;;7.10;;
50681;SDS011;36779;52.168;20.878;2023-02-13T12:11:21;15.20;;;7.40;;
50681;SDS011;36779;52.168;20.878;2023-02-13T12:14:02;13.50;;;6.70;;
50681;SDS011;36779;52.168;20.878;2023-02-13T12:16:39;13.00;;;6.30;;
50681;SDS011;36779;52.168;20.878;2023-02-13T12:19:15;15.60;;;7.40;;
50681;SDS011;36779;52.168;20.878;2023-02-13T12:21:50;16.40;;;7.80;;
50681;SDS011;36779;52.168;20.878;2023-02-13T12:24:37;19.50;;;8.40;;
50681;SDS011;36779;52.168;20.878;2023-02-13T12:27:22;12.80;;;5.00;;
50681;SDS011;36779;52.168;20.878;2023-02-13T12:30:05;17.70;;;7.80;;
50681;SDS011;36779;52.168;20.878;2023-02-13T12:33:07;13.80;;;7.70;;
50681;SDS011;36779;52.168;20.878;2023-02-13T12:35:51;14.40;;;6.30;;
50681;SDS011;36779;52.168;20.878;2023-02-13T12:38:35;17.00;;;7.30;;
50681;SDS011;36779;52.168;20.878;2023-02-13T12:41:14;13.90;;;6.20;;
50681;SDS011;36779;52.168;20.878;2023-02-13T12:46:59;13.90;;;6.90;;
50681;SDS011;36779;52.168;20.878;2023-02-13T12:52:42;13.50;;;6.40;;
50681;SDS011;36779;52.168;20.878;2023-02-13T12:55:23;16.90;;;7.40;;
50681;SDS011;36779;52.168;20.878;2023-02-13T12:58:07;12.60;;;6.00;;
50681;SDS011;36779;52.168;20.878;2023-02-13T13:00:48;18.50;;;6.10;;
50681;SDS011;36779;52.168;20.878;2023-02-13T13:06:20;12.90;;;5.80;;
50681;SDS011;36779;52.168;20.878;2023-02-13T13:09:11;13.60;;;6.30;;
50681;SDS011;36779;52.168;20.878;2023-02-13T13:12:20;13.40;;;7.10;;
50681;SDS011;36779;52.168;20.878;2023-02-13T13:15:08;17.90;;;7.60;;
50681;SDS011;36779;52.168;20.878;2023-02-13T13:17:51;12.80;;;6.60;;
50681;SDS011;36779;52.168;20.878;2023-02-13T13:20:35;19.10;;;7.90;;
50681;SDS011;36779;52.168;20.878;2023-02-13T13:23:32;24.90;;;10.00;;
50681;SDS011;36779;52.168;20.878;2023-02-13T13:26:13;19.10;;;8.00;;
50681;SDS011;36779;52.168;20.878;2023-02-13T13:28:52;15.40;;;7.30;;
50681;SDS011;36779;52.168;20.878;2023-02-13T13:31:23;17.10;;;6.60;;
50681;SDS011;36779;52.168;20.878;2023-02-13T13:33:57;15.80;;;7.90;;
50681;SDS011;36779;52.168;20.878;2023-02-13T13:36:37;14.30;;;7.30;;
50681;SDS011;36779;52.168;20.878;2023-02-13T13:39:26;12.60;;;6.50;;
50681;SDS011;36779;52.168;20.878;2023-02-13T13:42:04;20.20;;;7.00;;
50681;SDS011;36779;52.168;20.878;2023-02-13T13:44:41;15.90;;;6.80;;
50681;SDS011;36779;52.168;20.878;2023-02-13T13:47:28;12.40;;;5.60;;
50681;SDS011;36779;52.168;20.878;2023-02-13T13:50:12;14.00;;;6.10;;
50681;SDS011;36779;52.168;20.878;2023-02-13T13:53:11;12.40;;;6.50;;
50681;SDS011;36779;52.168;20.878;2023-02-13T13:58:36;15.60;;;7.70;;
50681;SDS011;36779;52.168;20.878;2023-02-13T14:01:18;15.30;;;6.70;;
50681;SDS011;36779;52.168;20.878;2023-02-13T14:03:56;15.10;;;6.70;;
50681;SDS011;36779;52.168;20.878;2023-02-13T14:09:52;15.30;;;7.00;;
50681;SDS011;36779;52.168;20.878;2023-02-13T14:12:36;16.90;;;6.80;;
50681;SDS011;36779;52.168;20.878;2023-02-13T14:18:19;15.30;;;7.00;;
50681;SDS011;36779;52.168;20.878;2023-02-13T14:20:50;17.60;;;7.10;;
50681;SDS011;36779;52.168;20.878;2023-02-13T14:23:29;15.30;;;6.40;;
50681;SDS011;36779;52.168;20.878;2023-02-13T14:26:25;16.50;;;6.80;;
50681;SDS011;36779;52.168;20.878;2023-02-13T14:31:58;9.90;;;5.60;;
50681;SDS011;36779;52.168;20.878;2023-02-13T14:34:32;12.00;;;5.50;;
50681;SDS011;36779;52.168;20.878;2023-02-13T14:42:57;16.70;;;7.10;;
50681;SDS011;36779;52.168;20.878;2023-02-13T14:48:31;12.40;;;5.40;;
50681;SDS011;36779;52.168;20.878;2023-02-13T14:51:06;13.10;;;5.20;;
50681;SDS011;36779;52.168;20.878;2023-02-13T14:53:55;12.80;;;5.90;;
50681;SDS011;36779;52.168;20.878;2023-02-13T14:56:30;12.80;;;5.80;;
50681;SDS011;36779;52.168;20.878;2023-02-13T14:59:07;10.40;;;5.80;;
50681;SDS011;36779;52.168;20.878;2023-02-13T15:01:42;12.90;;;5.50;;
50681;SDS011;36779;52.168;20.878;2023-02-13T15:04:25;14.40;;;6.40;;
50681;SDS011;36779;52.168;20.878;2023-02-13T15:06:58;22.70;;;8.70;;
50681;SDS011;36779;52.168;20.878;2023-02-13T15:09:31;20.40;;;8.90;;
50681;SDS011;36779;52.168;20.878;2023-02-13T15:14:57;12.00;;;6.20;;
50681;SDS011;36779;52.168;20.878;2023-02-13T15:17:28;17.10;;;7.20;;
50681;SDS011;36779;52.168;20.878;2023-02-13T15:20:07;13.40;;;6.10;;
50681;SDS011;36779;52.168;20.878;2023-02-13T15:22:50;13.40;;;6.00;;
50681;SDS011;36779;52.168;20.878;2023-02-13T15:25:22;10.70;;;5.10;;
50681;SDS011;36779;52.168;20.878;2023-02-13T15:27:53;13.90;;;5.70;;
50681;SDS011;36779;52.168;20.878;2023-02-13T15:30:25;13.10;;;6.20;;
50681;SDS011;36779;52.168;20.878;2023-02-13T15:32:55;13.20;;;6.90;;
50681;SDS011;36779;52.168;20.878;2023-02-13T15:35:27;11.60;;;5.90;;
50681;SDS011;36779;52.168;20.878;2023-02-13T15:37:57;13.20;;;5.00;;
50681;SDS011;36779;52.168;20.878;2023-02-13T15:40:29;13.30;;;5.40;;
50681;SDS011;36779;52.168;20.878;2023-02-13T15:43:00;12.80;;;5.90;;